sensor_id;sensor_type;location;lat;lon;timestamp;pressure;altitude;pressure_sealevel;temperature;humidity
16544;BME280;8384;47.996;7.786;2023-09-19T00:01:40;98589.81;;;16.21;100.00
16544;BME280;8384;47.996;7.786;2023-09-19T00:04:07;98595.75;;;16.28;100.00
16544;BME280;8384;47.996;7.786;2023-09-19T00:06:38;98596.69;;;16.24;100.00
16544;BME280;8384;47.996;7.786;2023-09-19T00:09:04;98593.81;;;16.29;100.00
16544;BME280;8384;47.996;7.786;2023-09-19T00:11:29;98573.47;;;16.11;100.00
16544;BME280;8384;47.996;7.786;2023-09-19T00:13:56;98593.69;;;16.20;100.00
16544;BME280;8384;47.996;7.786;2023-09-19T00:16:24;98581.44;;;16.12;100.00
16544;BME280;8384;47.996;7.786;2023-09-19T00:18:50;98577.34;;;16.10;100.00
16544;BME280;8384;47.996;7.786;2023-09-19T00:21:16;98575.91;;;16.12;100.00
16544;BME280;8384;47.996;7.786;2023-09-19T00:23:41;98587.06;;;16.21;100.00
16544;BME280;8384;47.996;7.786;2023-09-19T00:26:07;98589.28;;;16.19;100.00
16544;BME280;8384;47.996;7.786;2023-09-19T00:28:32;98590.66;;;16.22;100.00
16544;BME280;8384;47.996;7.786;2023-09-19T00:30:57;98576.47;;;15.95;100.00
16544;BME280;8384;47.996;7.786;2023-09-19T00:33:26;98572.66;;;15.91;100.00
16544;BME280;8384;47.996;7.786;2023-09-19T00:35:53;98594.28;;;16.17;100.00
16544;BME280;8384;47.996;7.786;2023-09-19T00:38:19;98593.09;;;16.23;100.00
16544;BME280;8384;47.996;7.786;2023-09-19T00:40:48;98594.69;;;16.10;100.00
16544;BME280;8384;47.996;7.786;2023-09-19T00:43:14;98596.25;;;16.16;100.00
16544;BME280;8384;47.996;7.786;2023-09-19T00:45:49;98591.50;;;16.03;100.00
16544;BME280;8384;47.996;7.786;2023-09-19T00:48:16;98602.56;;;16.17;100.00
16544;BME280;8384;47.996;7.786;2023-09-19T00:50:43;98592.38;;;16.17;100.00
16544;BME280;8384;47.996;7.786;2023-09-19T00:53:09;98603.78;;;16.11;100.00
16544;BME280;8384;47.996;7.786;2023-09-19T00:55:39;98597.28;;;16.21;100.00
16544;BME280;8384;47.996;7.786;2023-09-19T00:58:07;98598.50;;;16.14;100.00
16544;BME280;8384;47.996;7.786;2023-09-19T01:00:33;98600.66;;;16.17;100.00
16544;BME280;8384;47.996;7.786;2023-09-19T01:03:00;98587.41;;;16.00;100.00
16544;BME280;8384;47.996;7.786;2023-09-19T01:05:27;98558.69;;;15.87;100.00
16544;BME280;8384;47.996;7.786;2023-09-19T01:07:52;98600.13;;;16.15;100.00
16544;BME280;8384;47.996;7.786;2023-09-19T01:10:19;98589.06;;;16.01;100.00
16544;BME280;8384;47.996;7.786;2023-09-19T01:23:25;98614.16;;;16.33;99.48
16544;BME280;8384;47.996;7.786;2023-09-19T01:26:16;98618.75;;;16.24;99.20
16544;BME280;8384;47.996;7.786;2023-09-19T01:31:33;98621.88;;;16.17;99.28
16544;BME280;8384;47.996;7.786;2023-09-19T01:34:02;98611.34;;;16.19;97.75
16544;BME280;8384;47.996;7.786;2023-09-19T01:36:34;98592.38;;;16.17;97.57
16544;BME280;8384;47.996;7.786;2023-09-19T01:39:02;98618.75;;;16.24;96.90
16544;BME280;8384;47.996;7.786;2023-09-19T01:47:46;98610.47;;;16.24;97.00
16544;BME280;8384;47.996;7.786;2023-09-19T01:50:21;98625.00;;;16.29;97.06
16544;BME280;8384;47.996;7.786;2023-09-19T01:53:03;98626.31;;;16.32;95.44
16544;BME280;8384;47.996;7.786;2023-09-19T01:55:30;98626.69;;;16.25;95.65
16544;BME280;8384;47.996;7.786;2023-09-19T01:58:07;98631.63;;;16.28;95.06
16544;BME280;8384;47.996;7.786;2023-09-19T02:00:36;98634.69;;;16.27;94.59
16544;BME280;8384;47.996;7.786;2023-09-19T02:03:03;98637.22;;;16.23;95.17
16544;BME280;8384;47.996;7.786;2023-09-19T02:05:28;98631.31;;;16.30;94.57
16544;BME280;8384;47.996;7.786;2023-09-19T02:07:55;98627.56;;;16.40;93.57
16544;BME280;8384;47.996;7.786;2023-09-19T02:10:21;98633.09;;;16.40;93.86
16544;BME280;8384;47.996;7.786;2023-09-19T02:12:47;98640.94;;;16.32;94.16
16544;BME280;8384;47.996;7.786;2023-09-19T02:15:12;98623.34;;;16.28;93.14
16544;BME280;8384;47.996;7.786;2023-09-19T02:17:38;98634.19;;;16.25;94.89
16544;BME280;8384;47.996;7.786;2023-09-19T02:20:03;98634.38;;;16.28;95.02
16544;BME280;8384;47.996;7.786;2023-09-19T02:22:36;98640.69;;;16.15;96.53
16544;BME280;8384;47.996;7.786;2023-09-19T02:25:01;98615.44;;;16.08;96.21
16544;BME280;8384;47.996;7.786;2023-09-19T02:27:27;98634.94;;;16.11;97.78
16544;BME280;8384;47.996;7.786;2023-09-19T02:29:52;98648.03;;;16.19;98.50
16544;BME280;8384;47.996;7.786;2023-09-19T02:32:17;98647.72;;;16.21;98.02
16544;BME280;8384;47.996;7.786;2023-09-19T02:34:43;98641.81;;;16.14;97.49
16544;BME280;8384;47.996;7.786;2023-09-19T02:37:10;98653.84;;;16.18;97.69
16544;BME280;8384;47.996;7.786;2023-09-19T02:39:35;98654.59;;;16.24;96.66
16544;BME280;8384;47.996;7.786;2023-09-19T02:42:01;98662.16;;;16.32;96.51
16544;BME280;8384;47.996;7.786;2023-09-19T02:44:27;98652.38;;;16.07;98.53
16544;BME280;8384;47.996;7.786;2023-09-19T02:46:52;98655.88;;;16.12;100.00
16544;BME280;8384;47.996;7.786;2023-09-19T02:49:18;98619.16;;;15.79;100.00
16544;BME280;8384;47.996;7.786;2023-09-19T02:51:44;98654.66;;;15.80;100.00
16544;BME280;8384;47.996;7.786;2023-09-19T02:54:09;98642.63;;;15.95;100.00
16544;BME280;8384;47.996;7.786;2023-09-19T02:56:36;98641.75;;;16.00;100.00
16544;BME280;8384;47.996;7.786;2023-09-19T02:59:01;98637.94;;;15.77;100.00
16544;BME280;8384;47.996;7.786;2023-09-19T03:01:27;98635.56;;;15.89;100.00
16544;BME280;8384;47.996;7.786;2023-09-19T03:03:53;98642.69;;;15.90;100.00
16544;BME280;8384;47.996;7.786;2023-09-19T03:06:19;98645.53;;;15.85;100.00
16544;BME280;8384;47.996;7.786;2023-09-19T03:08:45;98658.34;;;15.95;99.75
16544;BME280;8384;47.996;7.786;2023-09-19T03:11:12;98662.22;;;15.94;100.00
16544;BME280;8384;47.996;7.786;2023-09-19T03:13:39;98651.91;;;15.80;100.00
16544;BME280;8384;47.996;7.786;2023-09-19T03:16:06;98657.66;;;15.84;99.48
16544;BME280;8384;47.996;7.786;2023-09-19T03:18:34;98640.69;;;15.77;100.00
16544;BME280;8384;47.996;7.786;2023-09-19T03:21:00;98673.03;;;15.90;99.14
16544;BME280;8384;47.996;7.786;2023-09-19T03:23:26;98667.50;;;15.90;98.91
16544;BME280;8384;47.996;7.786;2023-09-19T03:25:52;98671.53;;;15.98;98.02
16544;BME280;8384;47.996;7.786;2023-09-19T03:28:18;98677.94;;;16.12;97.23
16544;BME280;8384;47.996;7.786;2023-09-19T03:30:45;98669.66;;;15.93;98.19
16544;BME280;8384;47.996;7.786;2023-09-19T03:33:11;98657.16;;;16.01;97.88
16544;BME280;8384;47.996;7.786;2023-09-19T03:35:38;98660.94;;;16.05;97.16
16544;BME280;8384;47.996;7.786;2023-09-19T03:38:04;98666.56;;;16.00;97.26
16544;BME280;8384;47.996;7.786;2023-09-19T03:40:29;98655.75;;;16.03;97.11
16544;BME280;8384;47.996;7.786;2023-09-19T03:42:55;98655.59;;;15.95;97.72
16544;BME280;8384;47.996;7.786;2023-09-19T03:45:20;98660.25;;;16.13;96.54
16544;BME280;8384;47.996;7.786;2023-09-19T03:47:45;98610.56;;;15.80;97.16
16544;BME280;8384;47.996;7.786;2023-09-19T03:50:13;98613.72;;;15.73;97.69
16544;BME280;8384;47.996;7.786;2023-09-19T03:52:45;98654.41;;;16.01;98.10
16544;BME280;8384;47.996;7.786;2023-09-19T03:55:11;98605.91;;;15.62;99.15
16544;BME280;8384;47.996;7.786;2023-09-19T03:57:37;98678.47;;;15.95;98.81
16544;BME280;8384;47.996;7.786;2023-09-19T04:00:03;98677.06;;;15.98;99.31
16544;BME280;8384;47.996;7.786;2023-09-19T04:02:38;98666.09;;;15.93;99.65
16544;BME280;8384;47.996;7.786;2023-09-19T04:05:03;98646.75;;;15.98;98.86
16544;BME280;8384;47.996;7.786;2023-09-19T04:07:28;98633.75;;;15.79;98.93
16544;BME280;8384;47.996;7.786;2023-09-19T04:09:55;98662.56;;;16.06;99.09
16544;BME280;8384;47.996;7.786;2023-09-19T04:12:20;98662.75;;;15.96;99.13
16544;BME280;8384;47.996;7.786;2023-09-19T04:14:45;98681.34;;;16.04;98.64
16544;BME280;8384;47.996;7.786;2023-09-19T04:17:10;98669.84;;;16.02;98.54
16544;BME280;8384;47.996;7.786;2023-09-19T04:19:36;98660.00;;;15.96;98.82
16544;BME280;8384;47.996;7.786;2023-09-19T04:22:02;98673.84;;;16.10;98.07
16544;BME280;8384;47.996;7.786;2023-09-19T04:24:28;98683.00;;;16.05;98.99
16544;BME280;8384;47.996;7.786;2023-09-19T04:26:53;98681.47;;;15.99;99.07
16544;BME280;8384;47.996;7.786;2023-09-19T04:29:19;98688.38;;;15.96;99.28
16544;BME280;8384;47.996;7.786;2023-09-19T04:31:45;98673.31;;;15.88;98.63
16544;BME280;8384;47.996;7.786;2023-09-19T04:34:11;98690.47;;;16.04;99.12
16544;BME280;8384;47.996;7.786;2023-09-19T04:36:43;98690.75;;;16.03;99.14
16544;BME280;8384;47.996;7.786;2023-09-19T04:39:08;98703.66;;;16.08;98.74
16544;BME280;8384;47.996;7.786;2023-09-19T04:41:35;98703.34;;;16.09;99.78
16544;BME280;8384;47.996;7.786;2023-09-19T04:44:04;98699.13;;;15.98;100.00
16544;BME280;8384;47.996;7.786;2023-09-19T04:46:29;98684.38;;;15.83;100.00
16544;BME280;8384;47.996;7.786;2023-09-19T04:48:55;98704.03;;;16.01;100.00
16544;BME280;8384;47.996;7.786;2023-09-19T04:51:20;98689.22;;;15.72;100.00
16544;BME280;8384;47.996;7.786;2023-09-19T04:53:45;98688.63;;;15.75;100.00
16544;BME280;8384;47.996;7.786;2023-09-19T04:56:11;98714.19;;;15.81;100.00
16544;BME280;8384;47.996;7.786;2023-09-19T04:58:36;98715.03;;;15.82;100.00
16544;BME280;8384;47.996;7.786;2023-09-19T05:01:01;98702.72;;;15.74;100.00
16544;BME280;8384;47.996;7.786;2023-09-19T05:03:27;98718.00;;;15.85;100.00
16544;BME280;8384;47.996;7.786;2023-09-19T05:05:53;98726.63;;;15.79;100.00
16544;BME280;8384;47.996;7.786;2023-09-19T05:08:18;98722.63;;;15.90;100.00
16544;BME280;8384;47.996;7.786;2023-09-19T05:10:43;98719.41;;;15.83;100.00
16544;BME280;8384;47.996;7.786;2023-09-19T05:13:08;98713.06;;;15.82;100.00
16544;BME280;8384;47.996;7.786;2023-09-19T05:15:34;98715.34;;;15.99;100.00
16544;BME280;8384;47.996;7.786;2023-09-19T05:18:00;98718.84;;;15.86;100.00
16544;BME280;8384;47.996;7.786;2023-09-19T05:20:26;98709.09;;;15.94;100.00
16544;BME280;8384;47.996;7.786;2023-09-19T05:23:01;98705.75;;;15.97;99.54
16544;BME280;8384;47.996;7.786;2023-09-19T05:25:28;98724.34;;;16.05;99.73
16544;BME280;8384;47.996;7.786;2023-09-19T05:27:56;98729.88;;;16.05;100.00
16544;BME280;8384;47.996;7.786;2023-09-19T05:30:22;98735.38;;;16.05;99.66
16544;BME280;8384;47.996;7.786;2023-09-19T05:32:48;98737.25;;;16.10;98.90
16544;BME280;8384;47.996;7.786;2023-09-19T05:35:13;98745.75;;;16.13;98.76
16544;BME280;8384;47.996;7.786;2023-09-19T05:37:38;98749.09;;;16.10;99.44
16544;BME280;8384;47.996;7.786;2023-09-19T05:40:04;98745.28;;;16.06;99.18
16544;BME280;8384;47.996;7.786;2023-09-19T05:42:37;98755.78;;;16.04;99.47
16544;BME280;8384;47.996;7.786;2023-09-19T05:45:04;98753.72;;;15.96;99.82
16544;BME280;8384;47.996;7.786;2023-09-19T05:47:31;98756.50;;;16.15;98.87
16544;BME280;8384;47.996;7.786;2023-09-19T05:49:56;98747.47;;;16.09;97.59
16544;BME280;8384;47.996;7.786;2023-09-19T05:52:22;98767.44;;;16.20;97.81
16544;BME280;8384;47.996;7.786;2023-09-19T05:54:47;98770.50;;;16.18;97.81
16544;BME280;8384;47.996;7.786;2023-09-19T05:57:12;98773.84;;;16.15;99.05
16544;BME280;8384;47.996;7.786;2023-09-19T05:59:38;98766.41;;;15.97;100.00
16544;BME280;8384;47.996;7.786;2023-09-19T06:02:05;98777.78;;;16.09;100.00
16544;BME280;8384;47.996;7.786;2023-09-19T06:04:31;98782.94;;;16.16;99.69
16544;BME280;8384;47.996;7.786;2023-09-19T06:06:56;98775.88;;;16.10;100.00
16544;BME280;8384;47.996;7.786;2023-09-19T06:09:22;98779.50;;;16.05;100.00
16544;BME280;8384;47.996;7.786;2023-09-19T06:11:48;98798.78;;;16.05;100.00
16544;BME280;8384;47.996;7.786;2023-09-19T06:14:13;98795.75;;;16.07;99.68
16544;BME280;8384;47.996;7.786;2023-09-19T06:16:39;98788.38;;;16.02;100.00
16544;BME280;8384;47.996;7.786;2023-09-19T06:19:06;98803.44;;;16.10;99.89
16544;BME280;8384;47.996;7.786;2023-09-19T06:21:35;98791.28;;;16.11;99.65
16544;BME280;8384;47.996;7.786;2023-09-19T06:24:01;98799.72;;;16.19;98.73
16544;BME280;8384;47.996;7.786;2023-09-19T06:26:26;98804.91;;;16.21;99.10
16544;BME280;8384;47.996;7.786;2023-09-19T06:28:52;98807.69;;;16.21;98.44
16544;BME280;8384;47.996;7.786;2023-09-19T06:31:17;98763.31;;;15.98;97.66
16544;BME280;8384;47.996;7.786;2023-09-19T06:33:43;98813.13;;;16.26;97.56
16544;BME280;8384;47.996;7.786;2023-09-19T06:36:08;98807.22;;;16.33;97.57
16544;BME280;8384;47.996;7.786;2023-09-19T06:38:34;98814.38;;;16.34;97.51
16544;BME280;8384;47.996;7.786;2023-09-19T06:41:02;98811.88;;;16.38;97.31
16544;BME280;8384;47.996;7.786;2023-09-19T06:43:30;98822.13;;;16.32;97.97
16544;BME280;8384;47.996;7.786;2023-09-19T06:45:56;98817.97;;;16.34;96.91
16544;BME280;8384;47.996;7.786;2023-09-19T06:48:22;98815.59;;;16.28;98.51
16544;BME280;8384;47.996;7.786;2023-09-19T06:50:50;98787.47;;;16.07;97.11
16544;BME280;8384;47.996;7.786;2023-09-19T06:53:16;98821.63;;;16.30;97.75
16544;BME280;8384;47.996;7.786;2023-09-19T06:55:41;98806.50;;;16.27;97.46
16544;BME280;8384;47.996;7.786;2023-09-19T06:58:09;98793.09;;;16.21;96.28
16544;BME280;8384;47.996;7.786;2023-09-19T07:00:35;98837.19;;;16.59;95.29
16544;BME280;8384;47.996;7.786;2023-09-19T07:03:06;98839.97;;;16.59;96.04
16544;BME280;8384;47.996;7.786;2023-09-19T07:05:37;98847.50;;;16.53;95.75
16544;BME280;8384;47.996;7.786;2023-09-19T07:08:05;98843.75;;;16.82;95.37
16544;BME280;8384;47.996;7.786;2023-09-19T07:10:35;98832.63;;;16.87;93.41
16544;BME280;8384;47.996;7.786;2023-09-19T07:13:05;98841.75;;;17.21;93.76
16544;BME280;8384;47.996;7.786;2023-09-19T07:15:36;98836.75;;;17.23;92.21
16544;BME280;8384;47.996;7.786;2023-09-19T07:18:05;98833.41;;;17.40;90.71
16544;BME280;8384;47.996;7.786;2023-09-19T07:20:35;98836.81;;;17.51;90.43
16544;BME280;8384;47.996;7.786;2023-09-19T07:23:00;98838.56;;;17.61;89.61
16544;BME280;8384;47.996;7.786;2023-09-19T07:25:26;98838.56;;;17.75;87.91
16544;BME280;8384;47.996;7.786;2023-09-19T07:27:52;98814.88;;;17.27;88.79
16544;BME280;8384;47.996;7.786;2023-09-19T07:30:17;98852.28;;;17.94;87.22
16544;BME280;8384;47.996;7.786;2023-09-19T07:32:43;98855.75;;;17.86;87.21
16544;BME280;8384;47.996;7.786;2023-09-19T07:35:08;98852.47;;;17.69;85.88
16544;BME280;8384;47.996;7.786;2023-09-19T07:37:34;98841.63;;;17.45;88.24
16544;BME280;8384;47.996;7.786;2023-09-19T07:40:02;98845.16;;;17.32;88.50
16544;BME280;8384;47.996;7.786;2023-09-19T07:42:35;98851.78;;;17.78;87.36
16544;BME280;8384;47.996;7.786;2023-09-19T07:45:04;98848.00;;;18.02;84.37
16544;BME280;8384;47.996;7.786;2023-09-19T07:47:30;98860.38;;;18.18;83.27
16544;BME280;8384;47.996;7.786;2023-09-19T07:49:58;98865.59;;;17.78;82.65
16544;BME280;8384;47.996;7.786;2023-09-19T07:52:24;98865.59;;;17.92;82.11
16544;BME280;8384;47.996;7.786;2023-09-19T07:54:49;98869.31;;;17.87;82.31
16544;BME280;8384;47.996;7.786;2023-09-19T07:57:15;98855.34;;;17.78;83.27
16544;BME280;8384;47.996;7.786;2023-09-19T07:59:41;98861.50;;;18.03;81.71
16544;BME280;8384;47.996;7.786;2023-09-19T08:02:10;98869.63;;;18.13;80.75
16544;BME280;8384;47.996;7.786;2023-09-19T08:04:44;98870.13;;;18.16;79.59
16544;BME280;8384;47.996;7.786;2023-09-19T08:07:12;98862.72;;;18.39;78.30
16544;BME280;8384;47.996;7.786;2023-09-19T08:09:38;98880.28;;;18.57;77.77
16544;BME280;8384;47.996;7.786;2023-09-19T08:12:04;98889.28;;;18.26;78.29
16544;BME280;8384;47.996;7.786;2023-09-19T08:14:29;98877.78;;;18.47;78.90
16544;BME280;8384;47.996;7.786;2023-09-19T08:16:58;98887.09;;;18.87;77.09
16544;BME280;8384;47.996;7.786;2023-09-19T08:19:24;98881.03;;;18.99;75.13
16544;BME280;8384;47.996;7.786;2023-09-19T08:21:54;98875.38;;;19.05;74.63
16544;BME280;8384;47.996;7.786;2023-09-19T08:24:20;98881.47;;;19.15;72.74
16544;BME280;8384;47.996;7.786;2023-09-19T08:26:45;98882.47;;;18.83;75.03
16544;BME280;8384;47.996;7.786;2023-09-19T08:29:11;98855.25;;;19.22;73.02
16544;BME280;8384;47.996;7.786;2023-09-19T08:31:38;98890.13;;;19.45;72.30
16544;BME280;8384;47.996;7.786;2023-09-19T08:34:03;98890.94;;;19.46;71.25
16544;BME280;8384;47.996;7.786;2023-09-19T08:36:28;98895.44;;;19.33;71.78
16544;BME280;8384;47.996;7.786;2023-09-19T08:38:54;98895.00;;;19.71;70.20
16544;BME280;8384;47.996;7.786;2023-09-19T08:41:19;98909.97;;;19.93;69.25
16544;BME280;8384;47.996;7.786;2023-09-19T08:43:44;98897.03;;;19.57;68.67
16544;BME280;8384;47.996;7.786;2023-09-19T08:46:15;98906.25;;;20.06;69.01
16544;BME280;8384;47.996;7.786;2023-09-19T08:49:03;98905.75;;;20.53;67.97
16544;BME280;8384;47.996;7.786;2023-09-19T08:51:42;98897.78;;;20.03;65.83
16544;BME280;8384;47.996;7.786;2023-09-19T08:54:40;98900.91;;;20.77;64.67
16544;BME280;8384;47.996;7.786;2023-09-19T08:57:07;98903.19;;;20.83;62.70
16544;BME280;8384;47.996;7.786;2023-09-19T08:59:41;98902.38;;;20.83;64.40
16544;BME280;8384;47.996;7.786;2023-09-19T09:02:11;98902.69;;;20.90;65.06
16544;BME280;8384;47.996;7.786;2023-09-19T09:04:39;98898.13;;;20.77;63.21
16544;BME280;8384;47.996;7.786;2023-09-19T09:07:07;98881.41;;;20.68;63.32
16544;BME280;8384;47.996;7.786;2023-09-19T09:09:35;98893.69;;;20.76;64.41
16544;BME280;8384;47.996;7.786;2023-09-19T09:12:02;98906.69;;;20.40;63.10
16544;BME280;8384;47.996;7.786;2023-09-19T09:14:28;98910.69;;;19.76;66.68
16544;BME280;8384;47.996;7.786;2023-09-19T09:16:55;98905.88;;;19.90;64.63
16544;BME280;8384;47.996;7.786;2023-09-19T09:19:23;98907.78;;;19.81;64.88
16544;BME280;8384;47.996;7.786;2023-09-19T09:21:50;98893.41;;;19.79;64.27
16544;BME280;8384;47.996;7.786;2023-09-19T09:24:29;98904.03;;;20.26;62.93
16544;BME280;8384;47.996;7.786;2023-09-19T09:26:58;98911.63;;;19.94;61.26
16544;BME280;8384;47.996;7.786;2023-09-19T09:29:50;98907.53;;;20.58;60.28
16544;BME280;8384;47.996;7.786;2023-09-19T09:32:20;98907.28;;;21.12;59.84
16544;BME280;8384;47.996;7.786;2023-09-19T09:34:49;98906.78;;;21.19;58.29
16544;BME280;8384;47.996;7.786;2023-09-19T09:37:16;98874.25;;;21.02;59.83
16544;BME280;8384;47.996;7.786;2023-09-19T09:39:49;98905.38;;;21.78;55.08
16544;BME280;8384;47.996;7.786;2023-09-19T09:42:35;98905.22;;;21.83;55.41
16544;BME280;8384;47.996;7.786;2023-09-19T09:47:46;98919.88;;;20.92;54.87
16544;BME280;8384;47.996;7.786;2023-09-19T09:50:34;98901.41;;;20.88;54.28
16544;BME280;8384;47.996;7.786;2023-09-19T09:53:29;98895.66;;;20.84;55.70
16544;BME280;8384;47.996;7.786;2023-09-19T09:58:22;98885.16;;;20.37;55.93
16544;BME280;8384;47.996;7.786;2023-09-19T10:00:54;98801.22;;;20.49;55.07
16544;BME280;8384;47.996;7.786;2023-09-19T10:03:35;98824.88;;;21.08;53.42
16544;BME280;8384;47.996;7.786;2023-09-19T10:06:05;98807.59;;;20.76;55.11
16544;BME280;8384;47.996;7.786;2023-09-19T10:08:58;98899.44;;;20.97;54.39
16544;BME280;8384;47.996;7.786;2023-09-19T10:11:41;98782.59;;;20.41;56.32
16544;BME280;8384;47.996;7.786;2023-09-19T10:14:10;98902.03;;;21.11;54.72
16544;BME280;8384;47.996;7.786;2023-09-19T10:16:40;98858.34;;;21.29;53.00
16544;BME280;8384;47.996;7.786;2023-09-19T10:19:07;98891.75;;;21.85;52.55
16544;BME280;8384;47.996;7.786;2023-09-19T10:21:34;98892.38;;;22.30;52.13
16544;BME280;8384;47.996;7.786;2023-09-19T10:24:03;98855.31;;;20.95;54.31
16544;BME280;8384;47.996;7.786;2023-09-19T10:26:30;98797.41;;;20.01;57.13
16544;BME280;8384;47.996;7.786;2023-09-19T10:28:57;98792.66;;;20.01;57.40
16544;BME280;8384;47.996;7.786;2023-09-19T10:31:25;98838.25;;;20.18;57.05
16544;BME280;8384;47.996;7.786;2023-09-19T10:33:51;98790.50;;;19.89;55.23
16544;BME280;8384;47.996;7.786;2023-09-19T10:36:19;98875.84;;;20.59;55.16
16544;BME280;8384;47.996;7.786;2023-09-19T10:38:45;98847.28;;;20.59;54.67
16544;BME280;8384;47.996;7.786;2023-09-19T10:41:14;98839.94;;;20.63;53.26
16544;BME280;8384;47.996;7.786;2023-09-19T10:43:42;98890.44;;;21.26;53.87
16544;BME280;8384;47.996;7.786;2023-09-19T10:46:09;98753.97;;;20.75;52.48
16544;BME280;8384;47.996;7.786;2023-09-19T10:48:37;98833.63;;;21.93;50.51
16544;BME280;8384;47.996;7.786;2023-09-19T10:51:08;98859.59;;;22.78;49.41
16544;BME280;8384;47.996;7.786;2023-09-19T10:53:50;98787.41;;;22.52;48.07
16544;BME280;8384;47.996;7.786;2023-09-19T10:56:30;98803.28;;;23.06;46.88
16544;BME280;8384;47.996;7.786;2023-09-19T10:59:21;98867.84;;;22.74;46.85
16544;BME280;8384;47.996;7.786;2023-09-19T11:01:56;98838.16;;;23.46;45.68
16544;BME280;8384;47.996;7.786;2023-09-19T11:07:05;98863.00;;;24.22;41.33
16544;BME280;8384;47.996;7.786;2023-09-19T11:09:55;98825.06;;;23.13;44.31
16544;BME280;8384;47.996;7.786;2023-09-19T11:15:06;98867.34;;;23.48;44.25
16544;BME280;8384;47.996;7.786;2023-09-19T11:17:35;98808.09;;;23.64;43.09
16544;BME280;8384;47.996;7.786;2023-09-19T11:30:44;98789.13;;;22.14;43.66
16544;BME280;8384;47.996;7.786;2023-09-19T11:46:29;98785.28;;;22.49;40.89
16544;BME280;8384;47.996;7.786;2023-09-19T11:49:05;98786.72;;;22.55;38.07
16544;BME280;8384;47.996;7.786;2023-09-19T11:51:40;98823.91;;;22.59;38.16
16544;BME280;8384;47.996;7.786;2023-09-19T11:54:10;98782.97;;;21.78;39.21
16544;BME280;8384;47.996;7.786;2023-09-19T11:56:43;98771.66;;;21.75;39.74
16544;BME280;8384;47.996;7.786;2023-09-19T11:59:09;98757.97;;;21.61;40.72
16544;BME280;8384;47.996;7.786;2023-09-19T12:01:37;98799.56;;;21.96;41.48
16544;BME280;8384;47.996;7.786;2023-09-19T12:04:08;98779.28;;;21.56;41.71
16544;BME280;8384;47.996;7.786;2023-09-19T12:06:35;98794.47;;;21.68;41.30
16544;BME280;8384;47.996;7.786;2023-09-19T12:09:04;98730.94;;;22.00;39.93
16544;BME280;8384;47.996;7.786;2023-09-19T12:11:32;98789.13;;;22.99;37.50
16544;BME280;8384;47.996;7.786;2023-09-19T12:13:58;98766.75;;;22.74;37.33
16544;BME280;8384;47.996;7.786;2023-09-19T12:16:26;98745.56;;;22.18;38.78
16544;BME280;8384;47.996;7.786;2023-09-19T12:18:55;98780.78;;;23.11;37.75
16544;BME280;8384;47.996;7.786;2023-09-19T12:24:17;98811.16;;;24.08;35.04
16544;BME280;8384;47.996;7.786;2023-09-19T12:26:45;98801.22;;;23.74;36.37
16544;BME280;8384;47.996;7.786;2023-09-19T12:29:14;98738.91;;;23.45;39.04
16544;BME280;8384;47.996;7.786;2023-09-19T12:31:49;98786.53;;;24.39;37.74
16544;BME280;8384;47.996;7.786;2023-09-19T12:34:30;98762.97;;;24.52;37.09
16544;BME280;8384;47.996;7.786;2023-09-19T12:39:41;98800.69;;;24.05;36.91
16544;BME280;8384;47.996;7.786;2023-09-19T12:42:09;98775.19;;;23.82;36.59
16544;BME280;8384;47.996;7.786;2023-09-19T12:44:42;98761.81;;;24.00;36.56
16544;BME280;8384;47.996;7.786;2023-09-19T12:47:18;98784.50;;;24.52;35.86
16544;BME280;8384;47.996;7.786;2023-09-19T12:50:14;98771.06;;;24.70;34.78
16544;BME280;8384;47.996;7.786;2023-09-19T12:52:55;98737.72;;;24.49;34.16
16544;BME280;8384;47.996;7.786;2023-09-19T12:55:26;98735.94;;;25.45;33.05
16544;BME280;8384;47.996;7.786;2023-09-19T13:00:35;98776.16;;;25.09;31.62
16544;BME280;8384;47.996;7.786;2023-09-19T13:03:16;98703.34;;;23.54;32.73
16544;BME280;8384;47.996;7.786;2023-09-19T13:05:53;98782.50;;;23.74;34.47
16544;BME280;8384;47.996;7.786;2023-09-19T13:08:31;98743.31;;;23.95;34.07
16544;BME280;8384;47.996;7.786;2023-09-19T13:11:12;98739.19;;;24.71;33.00
16544;BME280;8384;47.996;7.786;2023-09-19T13:13:44;98773.03;;;24.29;30.71
16544;BME280;8384;47.996;7.786;2023-09-19T13:16:11;98701.03;;;24.22;33.34
16544;BME280;8384;47.996;7.786;2023-09-19T13:18:50;98683.91;;;24.23;35.62
16544;BME280;8384;47.996;7.786;2023-09-19T13:21:17;98740.97;;;25.24;35.63
16544;BME280;8384;47.996;7.786;2023-09-19T13:23:53;98749.66;;;24.33;36.99
16544;BME280;8384;47.996;7.786;2023-09-19T13:26:27;98701.59;;;23.74;37.16
16544;BME280;8384;47.996;7.786;2023-09-19T13:28:54;98709.03;;;23.70;38.28
16544;BME280;8384;47.996;7.786;2023-09-19T13:31:19;98742.03;;;24.05;37.96
16544;BME280;8384;47.996;7.786;2023-09-19T13:33:47;98709.50;;;24.25;37.39
16544;BME280;8384;47.996;7.786;2023-09-19T13:36:12;98696.94;;;24.32;36.55
16544;BME280;8384;47.996;7.786;2023-09-19T13:38:41;98759.66;;;24.75;33.55
16544;BME280;8384;47.996;7.786;2023-09-19T13:41:10;98708.97;;;24.77;33.57
16544;BME280;8384;47.996;7.786;2023-09-19T13:43:39;98703.75;;;24.75;33.37
16544;BME280;8384;47.996;7.786;2023-09-19T13:46:05;98693.09;;;23.71;35.41
16544;BME280;8384;47.996;7.786;2023-09-19T13:48:33;98707.00;;;24.20;36.04
16544;BME280;8384;47.996;7.786;2023-09-19T13:51:01;98708.31;;;23.98;33.98
16544;BME280;8384;47.996;7.786;2023-09-19T13:53:26;98733.88;;;24.82;34.27
16544;BME280;8384;47.996;7.786;2023-09-19T13:55:52;98722.53;;;24.62;33.85
16544;BME280;8384;47.996;7.786;2023-09-19T13:58:18;98688.69;;;24.23;34.97
16544;BME280;8384;47.996;7.786;2023-09-19T14:00:43;98720.38;;;25.32;34.45
16544;BME280;8384;47.996;7.786;2023-09-19T14:03:08;98709.00;;;24.64;36.01
16544;BME280;8384;47.996;7.786;2023-09-19T14:05:36;98667.09;;;24.64;34.24
16544;BME280;8384;47.996;7.786;2023-09-19T14:08:01;98631.13;;;24.63;34.22
16544;BME280;8384;47.996;7.786;2023-09-19T14:10:28;98669.22;;;24.99;34.31
16544;BME280;8384;47.996;7.786;2023-09-19T14:12:55;98686.63;;;24.77;33.92
16544;BME280;8384;47.996;7.786;2023-09-19T14:15:20;98709.91;;;24.97;33.29
16544;BME280;8384;47.996;7.786;2023-09-19T14:17:55;98702.44;;;24.16;33.35
16544;BME280;8384;47.996;7.786;2023-09-19T14:20:21;98576.94;;;23.25;34.38